Terminal Aerodrome Forecast
Issued by NWS

Home | Current Version | Previous Version | Text Only | Print | Product List | Glossary Off
Versions: 1 2 3 4 5 6 7 8 9 10 11 12 13 14 15 16 17 18

000
FTUS42 KMHX 210900 AAB
TAFPGV
TAF AMD
KPGV 210910Z 2109/2206 35008KT P6SM VCSH OVC005
      TEMPO 2109/2111 5SM -RA
     FM211100 33006KT P6SM OVC010
     FM211400 33005KT P6SM SCT010 BKN100
     FM211700 33007KT P6SM SCT060 SCT100
      AMD LTD TO CLD VIS AND WIND=

USA.gov is the U.S. government's official web portal to all federal, state and local government web resources and services.